You are not logged in, Click here to log in
愛德華·勞倫斯·洛根將軍國際機場 / KBOS 美國麻薩諸塞州波士頓
ICAO: KBOS Country: 美國麻薩諸塞州波士頓
Latitude: 42.3643 Longitude: -71.0052
Total Arrivals: 5 Total Departures: 3
Latest Arrival: FS98 (KDTW-KBOS)ALAN. LIU Latest Departure: FS12 (KBOS-KMSP)ALAN. LIU
Scenery:
METAR : KBOS 080254Z 30006KT 10SM CLR M02/M11 A3046 RMK AO2 SLP315 T10221106 51015

愛德華·勞倫斯·洛根將軍國際機場